Latest Weather Observations for Wagga Wagga

IDN60801

Issued at 11:33 am EST Thursday 1 September 2016 (issued every 30 minutes, with the page automatically refreshed every 10 minutes)

About weather observations | Map of weather stations | Latest weather observations for NSW | Other Formats
Station Details ID: 072150 Name: WAGGA WAGGA AMO Lat: -35.16 Lon: 147.46 Height: 212.0 m
Data from the previous 72 hours. | See also: Recent months at Wagga Wagga
Date/Time
EST
Temp
°C
App
Temp
°C
Dew
Point
°C
Rel
Hum
%
Delta-T
°C
Wind Press
QNH
hPa
Press
MSL
hPa
Rain since
9am
mm
Dir  Spd
km/h
Gust
km/h
Spd
kts
Gust
kts
01/11:00am 16.4 15.2 10.2 66 3.3 NE 7 13 4 7 1018.8 1018.9 0.0
01/10:30am 15.7 14.6 9.8 68 3.1 E 6 9 3 5 1019.1 1019.2 0.0
01/10:00am 14.8 14.5 10.0 73 2.5 ENE 2 7 1 4 1019.5 1019.6 0.0
01/09:30am 14.1 13.6 10.7 80 1.8 NE 4 9 2 5 1019.7 1020.0 0.0
01/09:00am 13.3 13.6 10.8 85 1.3 CALM 0 0 0 0 1019.9 1020.2 2.4
01/08:30am 11.3 11.4 10.3 94 0.5 CALM 0 0 0 0 1020.0 1020.3 2.4
01/08:00am 10.5 10.5 9.9 96 0.3 CALM 0 0 0 0 1019.9 1020.2 2.4
01/07:30am 10.1 10.1 9.9 99 0.1 CALM 0 0 0 0 1019.7 1020.0 2.4
01/07:14am 8.7 8.4 8.5 99 0.1 CALM 0 4 0 2 1019.5 1019.8 2.4
01/07:00am 8.3 6.5 8.1 99 0.1 SW 7 9 4 5 1019.5 1019.8 2.4
01/06:58am 8.2 6.4 8.0 99 0.1 SW 7 9 4 5 1019.5 1019.8 2.4
01/06:30am 7.7 5.7 7.3 97 0.2 W 7 9 4 5 1019.3 1019.6 2.4
01/06:13am 8.9 7.9 8.7 99 0.1 NE 4 7 2 4 1018.9 1019.3 2.4
01/06:09am 9.0 7.6 8.8 99 0.1 NNE 6 7 3 4 1018.9 1019.3 2.4
01/06:00am 9.2 7.7 8.6 96 0.3 NNW 6 9 3 5 1018.8 1019.2 2.4
01/05:53am 9.0 8.7 8.6 97 0.2 CALM 0 9 0 5 1018.8 1019.2 2.4
01/05:30am 9.6 9.4 9.2 97 0.2 CALM 0 6 0 3 1018.7 1019.1 2.4
01/05:00am 10.2 8.8 9.6 96 0.3 E 7 7 4 4 1018.4 1018.8 2.4
01/04:30am 10.2 9.4 9.6 96 0.3 SE 4 9 2 5 1018.6 1019.0 2.4
01/04:00am 9.8 9.7 9.4 97 0.2 CALM 0 0 0 0 1018.6 1019.0 2.4
01/03:30am 9.8 9.7 9.4 97 0.2 CALM 0 0 0 0 1018.7 1019.1 2.4
01/03:00am 9.6 9.4 9.2 97 0.2 CALM 0 0 0 0 1018.8 1019.2 2.4
01/02:30am 9.9 9.8 9.5 97 0.2 CALM 0 0 0 0 1018.7 1019.1 2.4
01/02:00am 9.7 9.6 9.3 97 0.2 CALM 0 0 0 0 1019.1 1019.4 2.4
01/01:30am 9.4 9.2 9.2 99 0.1 CALM 0 0 0 0 1019.2 1019.5 2.4
01/01:00am 10.3 10.3 9.7 96 0.3 CALM 0 0 0 0 1019.2 1019.5 2.4
01/12:30am 9.4 9.2 9.2 99 0.1 CALM 0 0 0 0 1019.1 1019.4 2.4
01/12:00am 8.5 8.1 8.1 97 0.2 CALM 0 0 0 0 1018.9 1019.3 2.4
 
Date/Time
EST
Temp
°C
App
Temp
°C
Dew
Point
°C
Rel
Hum
%
Delta-T
°C
Wind Press
QNH
hPa
Press
MSL
hPa
Rain since
9am
mm
Dir  Spd
km/h
Gust
km/h
Spd
kts
Gust
kts
31/11:30pm 8.7 8.2 7.9 95 0.4 CALM 0 0 0 0 1018.9 1019.3 2.4
31/11:00pm 8.4 7.9 8.0 97 0.2 CALM 0 0 0 0 1018.8 1019.2 2.4
31/10:30pm 10.0 9.9 9.4 96 0.3 CALM 0 0 0 0 1018.9 1019.3 2.4
31/10:00pm 9.9 9.7 9.1 95 0.4 CALM 0 0 0 0 1018.9 1019.3 2.4
31/09:30pm 9.9 9.8 9.3 96 0.3 CALM 0 0 0 0 1018.8 1019.2 2.4
31/09:00pm 9.2 8.8 8.4 95 0.4 CALM 0 0 0 0 1018.6 1019.0 2.4
31/08:30pm 11.0 11.0 9.8 92 0.6 CALM 0 0 0 0 1018.3 1018.7 2.4
31/08:00pm 11.4 11.5 10.0 91 0.7 CALM 0 0 0 0 1018.1 1018.5 2.4
31/07:30pm 12.5 12.7 10.6 88 1.0 CALM 0 4 0 2 1017.8 1018.2 2.4
31/07:00pm 13.7 12.6 10.5 81 1.7 NW 7 9 4 5 1017.6 1017.9 2.4
31/06:30pm 13.4 11.4 10.3 81 1.6 WNW 11 11 6 6 1017.3 1017.6 2.4
31/06:00pm 13.4 11.4 10.1 80 1.7 W 11 13 6 7 1017.1 1017.4 2.4
31/05:30pm 15.0 12.8 10.7 75 2.3 W 13 15 7 8 1016.8 1017.1 2.4
31/05:00pm 15.7 12.1 10.0 69 3.0 W 19 28 10 15 1016.5 1016.8 2.4
31/04:30pm 16.1 12.1 9.2 63 3.6 W 20 30 11 16 1016.1 1016.4 2.4
31/04:00pm 16.4 11.8 9.8 65 3.5 W 24 30 13 16 1016.0 1016.3 2.4
31/03:30pm 17.0 12.5 10.1 64 3.7 W 24 33 13 18 1015.8 1016.1 2.4
31/03:00pm 17.5 12.7 10.4 63 3.8 W 26 33 14 18 1015.6 1015.9 2.4
31/02:30pm 17.7 12.8 10.0 60 4.1 W 26 37 14 20 1015.5 1015.8 2.4
31/02:00pm 17.9 13.4 11.3 65 3.6 W 26 35 14 19 1015.2 1015.5 2.4
31/01:30pm 17.0 12.7 10.9 67 3.3 W 24 32 13 17 1015.2 1015.5 2.4
31/01:00pm 18.1 15.0 12.2 68 3.3 WSW 20 28 11 15 1015.3 1015.6 2.4
31/12:30pm 17.5 14.4 12.3 71 2.9 W 20 28 11 15 1015.7 1016.0 2.4
31/12:00pm 15.9 13.2 13.0 83 1.6 WNW 19 26 10 14 1015.9 1016.2 2.2
31/11:30am 15.1 12.6 13.5 90 0.9 W 19 24 10 13 1016.2 1016.5 2.2
31/11:00am 14.9 12.3 13.7 92 0.7 NNW 20 30 11 16 1016.0 1016.3 2.2
31/10:30am 15.4 13.5 14.2 92 0.7 NNW 17 26 9 14 1016.2 1016.5 2.0
31/10:00am 14.6 12.9 13.7 94 0.5 NNW 15 22 8 12 1016.2 1016.5 1.8
31/09:30am 14.3 11.6 13.6 96 0.4 NNW 20 32 11 17 1016.4 1016.7 1.6
31/09:00am 14.3 12.6 13.6 96 0.4 N 15 24 8 13 1016.3 1016.6 10.4
31/08:44am 14.3 12.6 13.6 96 0.4 N 15 22 8 12 1016.3 1016.6 10.4
31/08:30am 14.3 13.3 13.4 94 0.5 NNE 11 20 6 11 1016.3 1016.6 10.2
31/08:00am 14.2 12.4 13.3 94 0.5 N 15 24 8 13 1016.4 1016.7 9.6
31/07:30am 14.2 12.8 13.5 96 0.4 N 13 17 7 9 1016.2 1016.5 9.6
31/07:00am 14.1 12.7 13.4 96 0.4 N 13 20 7 11 1016.4 1016.7 9.6
31/06:50am 14.2 12.4 13.3 94 0.5 N 15 20 8 11 1016.4 1016.7 9.2
31/06:30am 14.2 12.5 13.7 97 0.3 N 15 24 8 13 1016.3 1016.6 8.4
31/06:00am 14.2 11.6 13.3 94 0.5 N 19 28 10 15 1015.9 1016.2 7.2
31/05:30am 14.2 11.7 13.5 96 0.4 N 19 30 10 16 1015.8 1016.1 6.6
31/05:00am 14.2 12.4 13.3 94 0.5 N 15 24 8 13 1016.1 1016.4 5.4
31/04:30am 14.2 12.3 13.1 93 0.6 N 15 24 8 13 1016.2 1016.5 4.6
31/04:00am 14.3 12.1 13.2 93 0.6 NNW 17 22 9 12 1016.3 1016.6 3.6
31/03:57am 14.4 12.1 13.1 92 0.7 N 17 22 9 12 1016.2 1016.5 3.4
31/03:30am 14.5 12.3 13.2 92 0.7 NNW 17 24 9 13 1016.4 1016.7 2.6
31/03:27am 14.5 12.7 13.2 92 0.7 N 15 24 8 13 1016.4 1016.7 2.6
31/03:00am 14.7 12.5 13.3 91 0.8 N 17 28 9 15 1016.3 1016.6 2.0
31/02:30am 15.0 12.3 13.0 88 1.1 N 19 28 10 15 1016.6 1016.9 1.6
31/02:00am 15.5 12.1 12.6 83 1.6 N 22 35 12 19 1016.7 1017.0 1.2
31/01:30am 15.5 12.7 12.6 83 1.6 N 19 30 10 16 1017.0 1017.3 1.2
31/01:00am 15.6 12.9 12.9 84 1.5 N 19 32 10 17 1017.4 1017.7 1.2
31/12:30am 15.3 13.9 13.3 88 1.1 N 13 22 7 12 1017.6 1017.9 1.2
31/12:00am 15.3 14.0 13.7 90 0.9 N 13 20 7 11 1018.1 1018.5 1.2
 
Date/Time
EST
Temp
°C
App
Temp
°C
Dew
Point
°C
Rel
Hum
%
Delta-T
°C
Wind Press
QNH
hPa
Press
MSL
hPa
Rain since
9am
mm
Dir  Spd
km/h
Gust
km/h
Spd
kts
Gust
kts
30/11:30pm 15.1 13.8 13.7 91 0.8 N 13 20 7 11 1018.6 1019.0 0.6
30/11:00pm 15.5 13.4 13.6 88 1.1 N 17 22 9 12 1018.7 1019.1 0.4
30/10:30pm 16.1 13.8 13.1 82 1.7 NNE 17 24 9 13 1018.8 1019.2 0.0
30/10:00pm 16.4 14.3 12.4 77 2.2 NNE 15 19 8 10 1019.2 1019.5 0.0
30/09:30pm 16.0 14.0 12.6 80 1.9 NNE 15 20 8 11 1019.7 1020.0 0.0
30/09:00pm 15.7 15.1 12.3 80 1.9 N 7 13 4 7 1020.2 1020.5 0.0
30/08:30pm 15.8 16.6 12.6 81 1.8 CALM 0 0 0 0 1019.8 1020.1 0.0
30/08:00pm 15.7 16.3 11.9 78 2.1 CALM 0 6 0 3 1019.6 1019.9 0.0
30/07:30pm 14.8 15.2 12.4 85 1.3 NW 2 6 1 3 1019.8 1020.1 0.0
30/07:00pm 15.9 15.2 11.5 75 2.4 NNW 6 9 3 5 1019.6 1019.9 0.0
30/06:30pm 16.3 16.4 11.5 73 2.6 WNW 2 7 1 4 1019.4 1019.7 0.0
30/06:00pm 16.9 16.0 11.2 69 3.1 N 7 9 4 5 1019.2 1019.5 0.0
30/05:30pm 17.9 15.7 10.7 62 3.9 NNE 13 20 7 11 1019.3 1019.6 0.0
30/05:00pm 17.8 16.8 11.0 64 3.7 N 7 11 4 6 1019.2 1019.5 0.0
30/04:30pm 18.5 17.0 10.4 59 4.4 NE 9 11 5 6 1019.1 1019.4 0.0
30/04:00pm 18.7 17.1 10.2 57 4.6 NNE 9 15 5 8 1019.4 1019.7 0.0
30/03:30pm 18.9 16.8 9.7 55 4.9 ENE 11 15 6 8 1018.9 1019.3 0.0
30/03:00pm 19.0 16.9 9.9 55 4.9 ENE 11 17 6 9 1019.3 1019.6 0.0
30/02:30pm 18.8 17.1 9.8 56 4.8 ENE 9 11 5 6 1019.7 1020.0 0.0
30/02:00pm 18.8 15.7 8.9 52 5.2 NE 15 26 8 14 1020.3 1020.6 0.0
30/01:30pm 18.6 15.3 7.9 49 5.5 ENE 15 20 8 11 1020.7 1021.0 0.0
30/01:00pm 18.6 15.0 8.4 51 5.3 ENE 17 24 9 13 1021.4 1021.7 0.0
30/12:30pm 18.0 14.3 7.9 51 5.2 ENE 17 22 9 12 1021.8 1022.2 0.0
30/12:00pm 16.8 12.8 6.7 51 5.0 ENE 17 20 9 11 1022.7 1023.1 0.0
30/11:30am 16.6 12.6 6.5 51 5.0 ENE 17 22 9 12 1023.1 1023.5 0.0
30/11:00am 15.6 11.4 5.6 51 4.8 ENE 17 24 9 13 1023.2 1023.6 0.0
30/10:30am 14.6 10.3 5.3 53 4.4 ENE 17 22 9 12 1023.7 1024.1 0.0
30/10:00am 14.4 9.8 5.6 55 4.2 E 19 26 10 14 1024.2 1024.5 0.0
30/09:30am 13.6 9.7 5.3 57 3.9 E 15 17 8 9 1024.7 1025.0 0.0
30/09:00am 13.1 9.6 5.5 60 3.6 E 13 17 7 9 1024.4 1024.7 0.0
30/08:30am 11.5 8.4 5.5 66 2.8 ENE 11 13 6 7 1024.1 1024.4 0.0
30/08:00am 10.6 7.0 5.1 69 2.5 ENE 13 17 7 9 1023.6 1024.0 0.0
30/07:30am 10.1 5.7 4.8 69 2.4 ESE 17 22 9 12 1023.2 1023.6 0.0
30/07:00am 9.4 5.4 5.0 74 2.0 E 15 17 8 9 1024.1 1024.4 0.0
30/06:30am 9.1 6.2 4.9 75 1.9 E 9 11 5 6 1023.6 1024.0 0.0
30/06:00am 9.6 6.8 5.2 74 2.0 E 9 11 5 6 1023.3 1023.7 0.0
30/05:30am 9.5 5.9 5.1 74 2.0 ENE 13 15 7 8 1023.0 1023.4 0.0
30/05:00am 9.8 5.8 4.9 71 2.2 E 15 19 8 10 1022.7 1023.1 0.0
30/04:30am 9.6 6.4 5.0 73 2.1 ENE 11 13 6 7 1022.8 1023.2 0.0
30/04:00am 10.0 6.0 4.9 70 2.3 ENE 15 17 8 9 1023.0 1023.4 0.0
30/03:30am 9.4 6.2 5.0 74 2.0 ENE 11 13 6 7 1023.2 1023.6 0.0
30/03:00am 9.4 6.2 5.0 74 2.0 E 11 13 6 7 1022.9 1023.3 0.0
30/02:30am 9.4 6.3 5.5 76 1.8 E 11 13 6 7 1023.3 1023.7 0.0
30/02:00am 9.3 6.2 5.6 78 1.7 E 11 13 6 7 1022.7 1023.1 0.0
30/01:30am 9.6 6.9 5.7 76 1.8 ENE 9 11 5 6 1023.3 1023.7 0.0
30/01:00am 9.7 5.9 5.8 77 1.8 E 15 17 8 9 1023.3 1023.7 0.0
30/12:30am 9.3 6.3 5.8 79 1.6 ENE 11 13 6 7 1023.6 1024.0 0.0
30/12:00am 9.7 6.2 5.6 75 1.9 E 13 15 7 8 1023.6 1024.0 0.0
 
Date/Time
EST
Temp
°C
App
Temp
°C
Dew
Point
°C
Rel
Hum
%
Delta-T
°C
Wind Press
QNH
hPa
Press
MSL
hPa
Rain since
9am
mm
Dir  Spd
km/h
Gust
km/h
Spd
kts
Gust
kts
29/11:30pm 9.4 5.5 5.5 76 1.8 E 15 17 8 9 1023.8 1024.2 0.0
29/11:00pm 9.9 5.6 5.3 73 2.1 ESE 17 19 9 10 1023.9 1024.3 0.0
29/10:30pm 9.4 5.9 5.5 76 1.8 E 13 15 7 8 1024.2 1024.5 0.0
29/10:00pm 9.1 6.0 5.6 79 1.6 ENE 11 13 6 7 1024.4 1024.7 0.0
29/09:30pm 9.3 6.6 5.8 79 1.6 ESE 9 11 5 6 1024.7 1025.0 0.0
29/09:00pm 10.1 7.1 5.8 74 2.0 E 11 13 6 7 1024.3 1024.6 0.0
29/08:30pm 10.5 7.5 5.8 72 2.2 ESE 11 13 6 7 1023.9 1024.3 0.0
29/08:00pm 9.5 7.3 6.0 79 1.6 ESE 7 9 4 5 1023.9 1024.3 0.0
29/07:30pm 10.3 7.7 6.0 75 2.0 ENE 9 11 5 6 1023.4 1023.8 0.0
29/07:00pm 11.1 8.5 6.0 71 2.4 E 9 13 5 7 1023.5 1023.9 0.0
29/06:30pm 12.0 9.4 6.1 67 2.8 E 9 9 5 5 1023.3 1023.7 0.0
29/06:00pm 12.5 9.6 6.7 68 2.8 ENE 11 13 6 7 1023.2 1023.6 0.0
29/05:30pm 12.8 10.4 6.8 67 2.9 ENE 9 11 5 6 1023.2 1023.6 0.0
29/05:00pm 13.7 11.2 6.7 62 3.4 ENE 9 11 5 6 1023.4 1023.8 0.0
29/04:30pm 14.3 11.2 5.7 56 4.1 ENE 11 13 6 7 1023.7 1024.1 0.0
29/04:00pm 14.4 12.2 6.4 58 3.9 NE 7 9 4 5 1024.1 1024.4 0.0
29/03:30pm 14.6 12.0 5.9 56 4.2 NNE 9 11 5 6 1024.2 1024.5 0.0
29/03:00pm 14.7 12.4 5.5 54 4.4 NNE 7 13 4 7 1024.8 1025.1 0.0
29/02:30pm 14.6 12.1 6.6 58 3.9 ENE 9 11 5 6 1024.1 1024.4 0.0
29/02:00pm 14.3 11.8 6.5 59 3.8 ENE 9 13 5 7 1024.3 1024.6 0.0
29/01:30pm 14.1 11.4 7.2 63 3.4 ENE 11 15 6 8 1024.3 1024.6 0.0
29/01:00pm 13.8 11.5 7.3 65 3.2 ENE 9 13 5 7 1024.9 1025.2 0.0
29/12:30pm 13.4 10.2 6.8 64 3.2 E 13 17 7 9 1024.8 1025.1 0.0
29/12:00pm 12.7 9.8 6.7 67 2.9 ENE 11 13 6 7 1025.5 1025.8 0.0

Other Formats:

Comma delimited format used in spreadsheet applications
http://www.bom.gov.au/fwo/IDN60801/IDN60801.94910.axf

JavaScript Object Notation format (JSON) in row-major order
http://www.bom.gov.au/fwo/IDN60801/IDN60801.94910.json